Time;durP1;ratioP1;P1;durP2;ratioP2;P2;SDS_P1;SDS_P2;PMS_P1;PMS_P2;Temp;Humidity;BMP_temperature;BMP_pressure;BME280_temperature;BME280_humidity;BME280_pressure;Samples;Min_cycle;Max_cycle;Signal;HPM_P1;HPM_P2
2022/09/03 00:01:21;;;;;;;0.60;0.60;;;17.50;99.90;;;;;;5096096;28;20918;-82
2022/09/03 00:03:52;;;;;;;0.57;0.57;;;17.60;99.90;;;;;;5096073;28;20920;-82
2022/09/03 00:06:27;;;;;;;0.80;0.80;;;17.60;99.90;;;;;;5096371;28;20437;-82
2022/09/03 00:09:01;;;;;;;1.00;0.90;;;17.60;99.90;;;;;;5095963;28;20439;-82
2022/09/03 00:11:33;;;;;;;0.67;0.53;;;17.60;99.90;;;;;;5096126;28;20436;-82
2022/09/03 00:14:05;;;;;;;0.60;0.60;;;17.60;99.90;;;;;;5096075;28;20474;-82
2022/09/03 00:16:42;;;;;;;1.00;0.50;;;17.60;99.90;;;;;;5096114;28;20431;-82
2022/09/03 00:19:09;;;;;;;0.53;0.50;;;17.60;99.90;;;;;;5096122;28;20439;-82
2022/09/03 00:21:43;;;;;;;0.73;0.60;;;17.60;99.90;;;;;;5095625;28;20455;-82
2022/09/03 00:24:13;;;;;;;0.50;0.50;;;17.50;99.90;;;;;;5096000;28;20439;-82
2022/09/03 00:26:43;;;;;;;0.60;0.60;;;17.50;99.90;;;;;;5095409;28;20479;-82
2022/09/03 00:29:15;;;;;;;0.50;0.50;;;17.50;99.90;;;;;;5095855;28;20443;-82
2022/09/03 00:31:46;;;;;;;0.60;0.50;;;17.50;99.90;;;;;;5095474;28;20840;-82
2022/09/03 00:34:29;;;;;;;0.50;0.50;;;17.50;99.90;;;;;;5094983;28;20879;-82
2022/09/03 00:36:58;;;;;;;0.60;0.60;;;17.50;99.90;;;;;;5095469;28;20961;-81
2022/09/03 00:39:27;;;;;;;0.60;0.50;;;17.50;99.90;;;;;;5096224;28;20459;-82
2022/09/03 00:42:06;;;;;;;0.80;0.57;;;17.40;99.90;;;;;;5095531;28;20468;-82
2022/09/03 00:44:47;;;;;;;2.27;0.97;;;17.40;99.90;;;;;;5095627;28;20432;-82
2022/09/03 00:47:20;;;;;;;0.53;0.50;;;17.40;99.90;;;;;;5095266;28;21002;-82
2022/09/03 00:49:59;;;;;;;0.83;0.50;;;17.40;99.90;;;;;;5095194;28;20527;-82
2022/09/03 00:52:38;;;;;;;2.10;0.70;;;17.40;99.90;;;;;;5095241;28;20520;-82
2022/09/03 00:55:13;;;;;;;0.50;0.50;;;17.40;99.90;;;;;;5095367;28;20432;-82
2022/09/03 00:57:51;;;;;;;0.60;0.60;;;17.40;99.90;;;;;;5095049;28;20435;-82
2022/09/03 01:00:20;;;;;;;1.43;0.90;;;17.40;99.90;;;;;;5095335;28;20428;-82
2022/09/03 01:02:57;;;;;;;0.50;0.50;;;17.40;99.90;;;;;;5095130;28;20486;-82
2022/09/03 01:06:04;;;;;;;0.70;0.50;;;17.40;99.90;;;;;;5095216;28;20435;-82
2022/09/03 01:08:50;;;;;;;0.80;0.50;;;17.50;99.90;;;;;;5095112;28;20462;-82
2022/09/03 01:11:26;;;;;;;0.47;0.47;;;17.50;99.90;;;;;;5094764;28;20939;-82
2022/09/03 01:14:01;;;;;;;0.47;0.47;;;17.50;99.90;;;;;;5094585;28;20978;-82
2022/09/03 01:16:34;;;;;;;1.00;0.40;;;17.50;99.90;;;;;;5094713;28;20427;-82
2022/09/03 01:19:11;;;;;;;0.70;0.57;;;17.50;99.90;;;;;;5094962;28;20850;-82
2022/09/03 01:22:06;;;;;;;0.70;0.60;;;17.50;99.90;;;;;;5094793;28;20463;-82
2022/09/03 01:25:03;;;;;;;0.40;0.40;;;17.50;99.90;;;;;;5094803;28;20424;-82
2022/09/03 01:27:42;;;;;;;0.70;0.60;;;17.50;99.90;;;;;;5094321;28;20487;-82
2022/09/03 01:30:17;;;;;;;0.60;0.40;;;17.40;99.90;;;;;;5094690;28;20532;-82
2022/09/03 01:32:51;;;;;;;1.57;0.67;;;17.40;99.90;;;;;;5094428;28;20466;-82
2022/09/03 01:35:27;;;;;;;0.70;0.70;;;17.40;99.90;;;;;;5094640;28;20632;-82
2022/09/03 01:38:12;;;;;;;1.57;0.50;;;17.40;99.90;;;;;;5094574;28;20432;-82
2022/09/03 01:40:46;;;;;;;0.70;0.70;;;17.40;99.90;;;;;;5094492;28;20440;-82
2022/09/03 01:43:34;;;;;;;0.60;0.50;;;17.40;99.90;;;;;;5094525;28;20468;-82
2022/09/03 01:46:12;;;;;;;0.60;0.60;;;17.30;99.90;;;;;;5093546;28;20816;-82
2022/09/03 01:48:45;;;;;;;0.70;0.50;;;17.30;99.90;;;;;;5094048;28;20812;-82
2022/09/03 01:51:19;;;;;;;0.80;0.70;;;17.30;99.90;;;;;;5094270;28;20475;-82
2022/09/03 01:54:03;;;;;;;0.67;0.67;;;17.30;99.90;;;;;;5094121;28;20483;-82
2022/09/03 01:56:45;;;;;;;0.60;0.60;;;17.30;99.90;;;;;;5094194;28;20440;-82
2022/09/03 01:59:20;;;;;;;0.50;0.50;;;17.30;99.90;;;;;;5094374;28;20432;-82
2022/09/03 02:01:53;;;;;;;0.60;0.50;;;17.30;99.90;;;;;;5094015;28;20479;-82
2022/09/03 02:04:22;;;;;;;0.70;0.60;;;17.30;99.90;;;;;;5093629;28;20934;-83
2022/09/03 02:06:50;;;;;;;0.67;0.67;;;17.20;99.90;;;;;;5093947;28;20517;-82
2022/09/03 02:09:17;;;;;;;0.60;0.60;;;17.20;99.90;;;;;;5094598;28;20440;-82
2022/09/03 02:11:46;;;;;;;0.80;0.77;;;17.20;99.90;;;;;;5093267;28;20471;-82
2022/09/03 02:14:13;;;;;;;0.60;0.60;;;17.10;99.90;;;;;;5093450;28;20480;-82
2022/09/03 02:16:40;;;;;;;0.50;0.50;;;17.10;99.90;;;;;;5093493;28;20459;-82
2022/09/03 02:19:12;;;;;;;0.60;0.60;;;17.10;99.90;;;;;;5093151;28;20459;-82
2022/09/03 02:21:44;;;;;;;0.60;0.60;;;17.10;99.90;;;;;;5093397;28;20444;-82
2022/09/03 02:24:11;;;;;;;0.70;0.40;;;17.10;99.90;;;;;;5093398;28;20451;-81
2022/09/03 02:26:38;;;;;;;0.80;0.80;;;17.10;99.90;;;;;;5092906;28;20948;-82
2022/09/03 02:29:05;;;;;;;0.60;0.50;;;17.10;99.90;;;;;;5093326;28;20452;-82
2022/09/03 02:31:32;;;;;;;7.13;0.70;;;17.00;99.90;;;;;;5093315;28;20448;-82
2022/09/03 02:33:59;;;;;;;0.57;0.57;;;17.00;99.90;;;;;;5092910;28;20502;-82
2022/09/03 02:36:31;;;;;;;0.60;0.60;;;17.00;99.90;;;;;;5092966;28;20440;-82
2022/09/03 02:38:58;;;;;;;0.97;0.60;;;17.00;99.90;;;;;;5093732;28;20432;-82
2022/09/03 02:41:26;;;;;;;0.50;0.50;;;17.00;99.90;;;;;;5093046;28;20546;-82
2022/09/03 02:43:58;;;;;;;0.70;0.60;;;17.00;99.90;;;;;;5093093;28;20829;-82
2022/09/03 02:46:31;;;;;;;2.80;1.00;;;17.00;99.90;;;;;;5093133;28;20431;-82
2022/09/03 02:48:58;;;;;;;0.50;0.50;;;17.00;99.90;;;;;;5092840;28;20899;-82
2022/09/03 02:51:26;;;;;;;1.60;0.90;;;17.00;99.90;;;;;;5093005;28;20455;-82
2022/09/03 02:53:53;;;;;;;0.63;0.57;;;17.00;99.90;;;;;;5093139;28;20484;-82
2022/09/03 02:56:23;;;;;;;0.57;0.57;;;17.00;99.90;;;;;;5093333;28;20488;-82
2022/09/03 02:58:49;;;;;;;0.70;0.70;;;16.90;99.90;;;;;;5096763;28;20809;-82
2022/09/03 03:01:16;;;;;;;0.80;0.80;;;16.90;99.90;;;;;;5097465;28;20452;-82
2022/09/03 03:03:43;;;;;;;2.10;0.83;;;16.90;99.90;;;;;;5097127;28;20463;-82
2022/09/03 03:06:11;;;;;;;0.70;0.70;;;16.90;99.90;;;;;;5097279;28;20443;-82
2022/09/03 03:08:39;;;;;;;1.23;0.70;;;16.90;99.90;;;;;;5097180;28;20931;-82
2022/09/03 03:11:06;;;;;;;0.70;0.70;;;16.90;99.90;;;;;;5096801;28;20884;-82
2022/09/03 03:13:33;;;;;;;0.70;0.60;;;16.90;99.90;;;;;;5096941;28;20573;-82
2022/09/03 03:16:02;;;;;;;2.73;1.20;;;16.80;99.90;;;;;;5096870;28;20765;-76
2022/09/03 03:18:28;;;;;;;0.93;0.93;;;16.80;99.90;;;;;;5096848;28;20452;-76
2022/09/03 03:20:55;;;;;;;0.70;0.70;;;16.80;99.90;;;;;;5096818;28;20444;-76
2022/09/03 03:23:22;;;;;;;0.87;0.67;;;16.70;99.90;;;;;;5096672;28;20470;-76
2022/09/03 03:25:50;;;;;;;0.80;0.73;;;16.80;99.90;;;;;;5096438;28;20480;-76
2022/09/03 03:28:18;;;;;;;2.20;0.70;;;16.70;99.90;;;;;;5096742;28;20432;-76
2022/09/03 03:30:47;;;;;;;1.30;1.00;;;16.80;99.90;;;;;;5096849;28;20459;-76
2022/09/03 03:33:14;;;;;;;1.07;0.87;;;16.80;99.90;;;;;;5096757;28;20518;-76
2022/09/03 03:35:41;;;;;;;1.40;0.83;;;16.80;99.90;;;;;;5096906;28;20448;-76
2022/09/03 03:38:08;;;;;;;1.77;0.80;;;16.80;99.90;;;;;;5096866;28;20878;-76
2022/09/03 03:40:35;;;;;;;1.23;0.90;;;16.80;99.90;;;;;;5096783;28;20439;-76
2022/09/03 03:43:03;;;;;;;1.30;1.10;;;16.80;99.90;;;;;;5096689;28;20472;-76
2022/09/03 03:45:30;;;;;;;0.90;0.77;;;16.70;99.90;;;;;;5096698;28;20436;-76
2022/09/03 03:47:58;;;;;;;1.00;0.77;;;16.70;99.90;;;;;;5096333;28;20823;-76
2022/09/03 03:50:25;;;;;;;1.00;0.80;;;16.70;99.90;;;;;;5096344;28;20951;-76
2022/09/03 03:52:51;;;;;;;0.97;0.90;;;16.70;99.90;;;;;;5096488;28;20468;-76
2022/09/03 03:55:18;;;;;;;0.90;0.90;;;16.70;99.90;;;;;;5096160;28;20994;-75
2022/09/03 03:57:45;;;;;;;1.10;0.77;;;16.70;99.90;;;;;;5096495;28;20452;-76
2022/09/03 04:00:15;;;;;;;0.90;0.70;;;16.70;99.90;;;;;;5096454;28;20447;-76
2022/09/03 04:02:41;;;;;;;1.30;0.83;;;16.70;99.90;;;;;;5096361;28;20468;-76
2022/09/03 04:05:09;;;;;;;2.00;1.60;;;16.80;99.90;;;;;;5096380;28;20447;-75
2022/09/03 04:07:36;;;;;;;0.90;0.90;;;16.80;99.90;;;;;;5096327;28;20447;-76
2022/09/03 04:10:02;;;;;;;0.70;0.50;;;16.80;99.90;;;;;;5094776;28;20448;-76
2022/09/03 04:12:29;;;;;;;1.53;1.13;;;16.80;99.90;;;;;;5096130;28;20475;-76
2022/09/03 04:14:56;;;;;;;1.13;0.80;;;16.80;99.90;;;;;;5096105;28;20492;-76
2022/09/03 04:17:24;;;;;;;0.80;0.80;;;16.80;99.90;;;;;;5096080;28;20448;-75
2022/09/03 04:19:50;;;;;;;0.90;0.90;;;16.70;99.90;;;;;;5096032;28;20452;-76
2022/09/03 04:22:18;;;;;;;0.77;0.77;;;16.70;99.90;;;;;;5095958;28;20468;-76
2022/09/03 04:24:45;;;;;;;1.63;0.67;;;16.70;99.90;;;;;;5095984;28;20474;-75
2022/09/03 04:27:11;;;;;;;1.60;1.07;;;16.70;99.90;;;;;;5095406;28;20486;-76
2022/09/03 04:29:38;;;;;;;0.53;0.53;;;16.70;99.90;;;;;;5095881;28;20444;-76
2022/09/03 04:34:51;;;;;;;1.00;0.73;;;16.80;99.90;;;;;;5095526;28;20459;-76
2022/09/03 04:37:18;;;;;;;0.80;0.80;;;16.80;99.90;;;;;;5095763;28;20452;-76
2022/09/03 04:39:45;;;;;;;1.10;1.00;;;16.80;99.90;;;;;;5095639;28;20505;-76
2022/09/03 04:42:12;;;;;;;1.17;0.70;;;16.80;99.90;;;;;;5095596;28;20464;-76
2022/09/03 04:44:39;;;;;;;1.13;1.03;;;16.80;99.90;;;;;;5095600;28;20440;-76
2022/09/03 04:47:06;;;;;;;0.80;0.73;;;16.80;99.90;;;;;;5095541;28;20479;-75
2022/09/03 04:49:33;;;;;;;1.50;1.07;;;16.80;99.90;;;;;;5095103;28;20823;-76
2022/09/03 04:52:01;;;;;;;2.00;1.27;;;16.90;99.90;;;;;;5095342;28;20716;-76
2022/09/03 04:54:28;;;;;;;1.47;0.93;;;16.80;99.90;;;;;;5095304;28;20479;-76
2022/09/03 04:56:55;;;;;;;1.00;0.97;;;16.90;99.90;;;;;;5095377;28;20440;-76
2022/09/03 04:59:21;;;;;;;0.77;0.60;;;16.90;99.90;;;;;;5095003;28;20444;-76
2022/09/03 05:01:48;;;;;;;1.33;0.80;;;16.90;99.90;;;;;;5095172;28;20471;-76
2022/09/03 05:04:15;;;;;;;0.70;0.60;;;16.90;99.90;;;;;;5095186;28;20451;-76
2022/09/03 05:06:42;;;;;;;1.80;1.20;;;16.90;99.90;;;;;;5094849;28;20447;-76
2022/09/03 05:09:10;;;;;;;1.33;0.70;;;16.90;99.90;;;;;;5094775;28;20950;-76
2022/09/03 05:11:37;;;;;;;1.73;0.90;;;16.90;99.90;;;;;;5094683;28;20943;-76
2022/09/03 05:14:04;;;;;;;3.43;1.10;;;16.90;99.90;;;;;;5094660;28;20998;-76
2022/09/03 05:16:32;;;;;;;1.13;1.03;;;16.80;99.90;;;;;;5094909;28;20535;-76
2022/09/03 05:19:00;;;;;;;0.60;0.60;;;16.90;99.90;;;;;;5095297;28;20799;-76
2022/09/03 05:21:28;;;;;;;0.77;0.63;;;16.90;99.90;;;;;;5094558;28;20535;-76
2022/09/03 05:23:55;;;;;;;0.93;0.93;;;16.90;99.90;;;;;;5094727;28;20452;-76
2022/09/03 05:26:25;;;;;;;0.63;0.63;;;17.00;99.90;;;;;;5094430;28;20479;-76
2022/09/03 05:28:55;;;;;;;1.17;0.80;;;17.00;99.90;;;;;;5094745;28;20448;-76
2022/09/03 05:31:25;;;;;;;1.07;1.07;;;17.00;99.90;;;;;;5094569;28;20452;-76
2022/09/03 05:33:53;;;;;;;1.63;0.83;;;16.90;99.90;;;;;;5094527;28;20444;-76
2022/09/03 05:36:22;;;;;;;2.70;1.20;;;16.90;99.90;;;;;;5094583;28;20509;-76
2022/09/03 05:38:49;;;;;;;1.63;0.87;;;17.00;99.90;;;;;;5094194;28;20477;-76
2022/09/03 05:41:17;;;;;;;1.63;1.30;;;17.00;99.90;;;;;;5094161;28;20935;-76
2022/09/03 05:43:50;;;;;;;0.80;0.80;;;17.00;99.90;;;;;;5094365;28;20467;-76
2022/09/03 05:46:17;;;;;;;0.60;0.60;;;17.10;99.90;;;;;;5094547;28;20920;-76
2022/09/03 05:48:44;;;;;;;1.10;0.97;;;17.10;99.90;;;;;;5094345;28;20471;-76
2022/09/03 05:51:13;;;;;;;1.70;0.80;;;17.00;99.90;;;;;;5094297;28;20452;-76
2022/09/03 05:53:40;;;;;;;1.23;1.00;;;17.00;99.90;;;;;;5093886;28;21005;-76
2022/09/03 05:56:10;;;;;;;0.80;0.80;;;17.10;99.90;;;;;;5094192;28;20506;-76
2022/09/03 05:58:39;;;;;;;0.90;0.90;;;17.10;99.90;;;;;;5093849;28;21050;-76
2022/09/03 06:01:13;;;;;;;0.90;0.83;;;17.00;99.90;;;;;;5094121;28;20448;-76
2022/09/03 06:03:39;;;;;;;1.40;0.97;;;17.00;99.90;;;;;;5094035;28;20811;-76
2022/09/03 06:06:07;;;;;;;1.70;0.90;;;17.10;99.90;;;;;;5094081;28;20436;-75
2022/09/03 06:08:34;;;;;;;0.80;0.73;;;17.10;99.90;;;;;;5094006;28;20451;-76
2022/09/03 06:11:02;;;;;;;1.10;0.77;;;17.20;99.90;;;;;;5093836;28;20428;-76
2022/09/03 06:13:30;;;;;;;0.90;0.73;;;17.20;99.90;;;;;;5093577;28;20451;-76
2022/09/03 06:15:57;;;;;;;1.87;0.90;;;17.20;99.90;;;;;;5093748;28;20467;-76
2022/09/03 06:18:26;;;;;;;4.20;1.40;;;17.30;99.90;;;;;;5093892;28;20433;-76
2022/09/03 06:20:56;;;;;;;0.70;0.70;;;17.30;99.90;;;;;;5093804;28;20456;-75
2022/09/03 06:23:23;;;;;;;2.17;0.87;;;17.40;99.90;;;;;;5093666;28;20463;-75
2022/09/03 06:26:00;;;;;;;1.57;0.90;;;17.40;99.90;;;;;;5093467;28;20818;-76
2022/09/03 06:28:27;;;;;;;0.97;0.80;;;17.40;99.90;;;;;;5093805;28;20428;-76
2022/09/03 06:30:53;;;;;;;0.90;0.90;;;17.40;99.90;;;;;;5093659;28;20455;-76
2022/09/03 06:33:20;;;;;;;1.10;0.70;;;17.40;99.90;;;;;;5092956;28;20468;-76
2022/09/03 06:35:48;;;;;;;2.30;0.90;;;17.50;99.90;;;;;;5093578;28;20475;-75
2022/09/03 06:38:17;;;;;;;1.30;0.77;;;17.60;99.90;;;;;;5093232;28;20823;-75
2022/09/03 06:40:45;;;;;;;1.50;1.03;;;17.60;99.90;;;;;;5093520;28;20440;-76
2022/09/03 06:43:12;;;;;;;1.13;0.70;;;17.60;99.90;;;;;;5093378;28;20476;-75
2022/09/03 06:45:39;;;;;;;1.33;0.90;;;17.70;99.90;;;;;;5093518;28;20428;-75
2022/09/03 06:48:06;;;;;;;1.73;1.07;;;17.70;99.90;;;;;;5093493;28;20447;-76
2022/09/03 06:50:32;;;;;;;0.90;0.90;;;17.80;99.90;;;;;;5093494;28;20827;-76
2022/09/03 06:53:00;;;;;;;3.27;1.20;;;17.80;99.90;;;;;;5093377;28;20479;-76
2022/09/03 06:55:27;;;;;;;1.27;0.57;;;17.80;99.90;;;;;;5093331;28;20479;-76
2022/09/03 06:57:56;;;;;;;1.17;0.73;;;17.90;99.90;;;;;;5093029;28;20954;-76
2022/09/03 07:00:23;;;;;;;9.20;1.40;;;18.00;99.90;;;;;;5093291;28;20505;-76
2022/09/03 07:02:57;;;;;;;1.23;0.90;;;18.10;99.90;;;;;;5092974;28;21006;-76
2022/09/03 07:05:25;;;;;;;0.90;0.70;;;18.20;99.90;;;;;;5093336;28;20435;-76
2022/09/03 07:07:52;;;;;;;1.53;0.90;;;18.20;99.90;;;;;;5093316;28;20447;-75
2022/09/03 07:10:20;;;;;;;0.70;0.70;;;18.20;99.90;;;;;;5092954;28;20962;-75
2022/09/03 07:12:47;;;;;;;1.50;0.80;;;18.20;99.90;;;;;;5093158;28;20475;-76
2022/09/03 07:15:14;;;;;;;0.83;0.83;;;18.30;99.90;;;;;;5093120;28;20567;-76
2022/09/03 07:17:40;;;;;;;1.63;1.20;;;18.30;99.90;;;;;;5093198;28;20455;-76
2022/09/03 07:20:08;;;;;;;8.30;0.90;;;18.40;99.90;;;;;;5093162;28;20455;-76
2022/09/03 07:22:34;;;;;;;1.70;0.80;;;18.60;99.90;;;;;;5093067;28;20470;-76
2022/09/03 07:25:01;;;;;;;0.70;0.70;;;18.70;99.90;;;;;;5092788;28;20978;-76
2022/09/03 07:27:29;;;;;;;0.90;0.77;;;18.80;99.90;;;;;;5092653;28;21002;-76
2022/09/03 07:29:56;;;;;;;4.93;1.37;;;18.80;99.90;;;;;;5092793;28;20505;-76
2022/09/03 07:32:23;;;;;;;0.90;0.87;;;18.90;99.90;;;;;;5092981;28;20471;-76
2022/09/03 07:34:51;;;;;;;1.43;0.70;;;18.90;99.90;;;;;;5092906;28;20506;-76
2022/09/03 07:37:18;;;;;;;1.07;0.93;;;18.90;99.90;;;;;;5092654;28;20455;-76
2022/09/03 07:39:45;;;;;;;1.63;0.87;;;19.00;99.90;;;;;;5092940;28;20454;-76
2022/09/03 07:42:12;;;;;;;0.90;0.57;;;19.00;99.90;;;;;;5092948;28;20476;-76
2022/09/03 07:44:40;;;;;;;0.83;0.70;;;19.00;99.90;;;;;;5096053;28;20443;-76
2022/09/03 07:47:07;;;;;;;0.53;0.53;;;19.00;99.90;;;;;;5097002;28;20444;-86
2022/09/03 07:49:35;;;;;;;1.83;1.17;;;19.00;99.90;;;;;;5096752;28;20451;-80
2022/09/03 07:52:02;;;;;;;1.30;1.03;;;19.10;99.90;;;;;;5096556;28;20472;-80
2022/09/03 07:54:30;;;;;;;1.23;0.97;;;19.20;99.90;;;;;;5096547;28;20448;-79
2022/09/03 07:56:57;;;;;;;0.70;0.50;;;19.30;99.90;;;;;;5098202;28;20452;-79
2022/09/03 07:59:24;;;;;;;1.53;0.90;;;19.50;99.90;;;;;;5096520;28;20459;-79
2022/09/03 08:01:53;;;;;;;1.13;0.80;;;19.70;99.90;;;;;;5096387;28;20517;-80
2022/09/03 08:04:20;;;;;;;1.10;1.00;;;20.00;99.90;;;;;;5096402;28;20456;-79
2022/09/03 08:06:48;;;;;;;1.13;0.77;;;20.20;99.90;;;;;;5096281;28;20523;-79
2022/09/03 08:09:15;;;;;;;1.37;0.87;;;20.30;99.90;;;;;;5096362;28;20479;-79
2022/09/03 08:11:43;;;;;;;2.43;0.80;;;20.50;99.90;;;;;;5095962;28;20806;-80
2022/09/03 08:14:11;;;;;;;1.60;1.13;;;20.60;99.90;;;;;;5095943;28;20968;-80
2022/09/03 08:16:40;;;;;;;1.00;0.83;;;20.70;99.90;;;;;;5096063;28;20490;-80
2022/09/03 08:19:10;;;;;;;0.90;0.90;;;20.80;99.90;;;;;;5095806;28;20457;-80
2022/09/03 08:21:37;;;;;;;0.70;0.70;;;20.90;99.90;;;;;;5096022;28;20486;-81
2022/09/03 08:24:04;;;;;;;1.10;0.90;;;21.10;99.90;;;;;;5095974;28;20466;-80
2022/09/03 08:26:32;;;;;;;1.27;0.70;;;21.10;99.90;;;;;;5095595;28;20578;-80
2022/09/03 08:28:59;;;;;;;1.23;0.80;;;21.10;99.90;;;;;;5095960;28;20463;-80
2022/09/03 08:31:27;;;;;;;2.57;0.90;;;21.20;99.90;;;;;;5095498;28;20947;-80
2022/09/03 08:33:55;;;;;;;0.90;0.70;;;21.40;99.90;;;;;;5095824;28;20443;-80
2022/09/03 08:36:25;;;;;;;3.10;1.47;;;21.50;99.90;;;;;;5095367;28;21005;-81
2022/09/03 08:38:53;;;;;;;1.00;0.83;;;21.50;99.90;;;;;;5095505;28;20428;-81
2022/09/03 08:41:28;;;;;;;1.17;0.70;;;21.90;99.90;;;;;;5095701;28;20542;-81
2022/09/03 08:44:09;;;;;;;2.23;0.90;;;22.10;99.90;;;;;;5096220;28;20446;-80
2022/09/03 08:46:46;;;;;;;0.63;0.63;;;22.20;99.90;;;;;;5095312;28;20809;-80
2022/09/03 08:49:18;;;;;;;1.80;1.23;;;22.30;99.90;;;;;;5095263;28;20938;-80
2022/09/03 08:51:48;;;;;;;0.73;0.60;;;22.20;99.90;;;;;;5095598;28;20470;-83
2022/09/03 08:54:15;;;;;;;1.97;1.10;;;22.10;99.90;;;;;;5095407;28;20432;-80
2022/09/03 08:56:43;;;;;;;0.80;0.70;;;22.00;99.90;;;;;;5094833;28;20482;-80
2022/09/03 08:59:10;;;;;;;1.00;0.80;;;21.80;99.90;;;;;;5095343;28;20443;-81
2022/09/03 09:01:47;;;;;;;1.40;0.67;;;21.60;99.90;;;;;;5094985;28;20442;-80
2022/09/03 09:04:24;;;;;;;1.10;0.60;;;21.60;99.90;;;;;;5095283;28;20408;-81
2022/09/03 09:06:57;;;;;;;1.10;0.67;;;21.60;99.90;;;;;;5095242;28;20430;-81
2022/09/03 09:09:30;;;;;;;1.00;0.60;;;21.80;99.90;;;;;;5095149;28;20457;-80
2022/09/03 09:12:12;;;;;;;0.63;0.63;;;21.80;99.90;;;;;;5094773;28;20979;-80
2022/09/03 09:14:45;;;;;;;0.63;0.63;;;21.80;99.90;;;;;;5095195;28;20447;-80
2022/09/03 09:17:31;;;;;;;0.93;0.80;;;21.80;99.90;;;;;;5094974;28;20495;-80
2022/09/03 09:20:06;;;;;;;1.27;0.90;;;21.70;99.90;;;;;;5094961;28;20480;-80
2022/09/03 09:22:38;;;;;;;1.43;1.13;;;21.60;99.90;;;;;;5094848;28;20470;-80
2022/09/03 09:25:13;;;;;;;0.87;0.87;;;21.60;99.90;;;;;;5094601;28;20434;-81
2022/09/03 09:27:50;;;;;;;0.80;0.80;;;21.60;99.90;;;;;;5094393;28;20479;-80
2022/09/03 09:30:18;;;;;;;0.77;0.77;;;22.00;99.90;;;;;;5094763;28;20431;-80
2022/09/03 09:32:46;;;;;;;0.80;0.73;;;22.30;99.90;;;;;;5094652;28;20463;-80
2022/09/03 09:35:13;;;;;;;1.23;1.13;;;22.40;99.90;;;;;;5094545;28;20444;-80
2022/09/03 09:37:49;;;;;;;1.53;0.70;;;22.50;99.90;;;;;;5094631;28;20443;-81
2022/09/03 09:40:31;;;;;;;0.70;0.70;;;22.50;99.90;;;;;;5094642;28;20438;-80
2022/09/03 09:43:11;;;;;;;1.87;0.70;;;22.50;99.90;;;;;;5094537;28;20475;-80
2022/09/03 09:45:40;;;;;;;3.50;0.90;;;22.40;99.90;;;;;;5094101;28;20514;-81
2022/09/03 09:48:13;;;;;;;0.97;0.80;;;22.30;99.90;;;;;;5094387;28;20446;-80
2022/09/03 09:50:40;;;;;;;0.90;0.60;;;22.10;99.90;;;;;;5094405;28;20436;-81
2022/09/03 09:53:15;;;;;;;1.53;0.90;;;22.20;99.90;;;;;;5094156;28;20471;-80
2022/09/03 09:55:53;;;;;;;1.10;1.00;;;22.20;99.90;;;;;;5093771;28;20504;-80
2022/09/03 09:58:22;;;;;;;1.70;0.97;;;22.20;99.90;;;;;;5094225;28;20930;-80
2022/09/03 10:01:03;;;;;;;0.80;0.80;;;22.20;99.90;;;;;;5094506;28;20431;-80
2022/09/03 10:03:33;;;;;;;0.70;0.60;;;22.20;99.90;;;;;;5094131;28;20871;-80
2022/09/03 10:08:48;;;;;;;0.80;0.80;;;22.10;99.90;;;;;;5093179;28;20427;-81
2022/09/03 10:11:18;;;;;;;1.80;1.20;;;22.00;99.90;;;;;;5093796;28;20439;-81
2022/09/03 10:13:48;;;;;;;1.20;0.67;;;21.90;99.90;;;;;;5093552;28;20978;-81
2022/09/03 10:16:26;;;;;;;3.07;1.00;;;21.90;99.90;;;;;;5093677;28;20478;-81
2022/09/03 10:19:02;;;;;;;0.87;0.87;;;22.00;99.90;;;;;;5093446;28;20439;-81
2022/09/03 10:21:35;;;;;;;0.80;0.80;;;22.30;99.90;;;;;;5093723;28;20802;-82
2022/09/03 10:24:19;;;;;;;1.10;0.90;;;22.70;99.90;;;;;;5093950;28;20185;-81
2022/09/03 10:26:45;;;;;;;0.97;0.90;;;23.10;99.90;;;;;;5093451;28;20225;-81
2022/09/03 10:29:18;;;;;;;1.23;0.90;;;23.20;99.90;;;;;;5093794;28;20197;-82
2022/09/03 10:32:01;;;;;;;0.90;0.80;;;23.30;99.90;;;;;;5093693;28;20221;-81
2022/09/03 10:34:36;;;;;;;0.70;0.70;;;23.30;99.90;;;;;;5093629;28;20204;-81
2022/09/03 10:37:12;;;;;;;1.77;0.80;;;23.20;99.90;;;;;;5093613;28;20247;-81
2022/09/03 10:40:01;;;;;;;1.00;0.73;;;23.00;99.90;;;;;;5093393;28;20185;-81
2022/09/03 10:42:38;;;;;;;0.70;0.70;;;22.80;99.90;;;;;;5093539;28;20218;-81
2022/09/03 10:45:16;;;;;;;1.97;1.17;;;22.80;99.90;;;;;;5093583;28;20629;-81
2022/09/03 10:48:24;;;;;;;1.73;1.33;;;22.60;99.90;;;;;;5093587;28;20264;-81
2022/09/03 10:50:55;;;;;;;1.40;1.17;;;22.80;99.90;;;;;;5093271;28;20187;-81
2022/09/03 10:53:34;;;;;;;1.57;1.10;;;22.80;99.90;;;;;;5093400;28;20217;-80
2022/09/03 10:56:07;;;;;;;1.20;1.00;;;22.80;99.90;;;;;;5093401;28;20463;-80
2022/09/03 10:58:55;;;;;;;1.07;0.80;;;22.70;99.90;;;;;;5093447;28;20193;-80
2022/09/03 11:01:31;;;;;;;1.00;0.90;;;22.60;99.90;;;;;;5092997;28;20438;-81
2022/09/03 11:04:14;;;;;;;1.10;1.00;;;22.60;99.90;;;;;;5093096;28;20192;-81
2022/09/03 11:06:47;;;;;;;1.60;1.23;;;22.50;99.90;;;;;;5093436;28;20185;-81
2022/09/03 11:09:20;;;;;;;0.80;0.80;;;22.50;99.90;;;;;;5093048;28;20185;-81
2022/09/03 11:11:54;;;;;;;1.00;0.83;;;22.50;99.90;;;;;;5092918;28;20974;-81
2022/09/03 11:14:31;;;;;;;1.63;0.70;;;22.30;99.90;;;;;;5093055;28;20432;-80
2022/09/03 11:17:05;;;;;;;0.80;0.80;;;22.30;99.90;;;;;;5093233;28;20459;-80
2022/09/03 11:19:36;;;;;;;0.93;0.93;;;22.20;99.90;;;;;;5096411;28;20431;-79
2022/09/03 11:22:04;;;;;;;1.63;1.20;;;22.10;99.90;;;;;;5097205;28;20486;-79
2022/09/03 11:24:33;;;;;;;0.87;0.87;;;21.90;99.90;;;;;;5097209;28;20459;-78
2022/09/03 11:27:12;;;;;;;2.90;1.07;;;21.80;99.90;;;;;;5096652;28;20983;-79
2022/09/03 11:29:48;;;;;;;1.33;1.00;;;21.60;99.90;;;;;;5096868;28;20796;-78
2022/09/03 11:32:20;;;;;;;1.00;0.73;;;21.50;99.90;;;;;;5097032;28;20467;-78
2022/09/03 11:34:49;;;;;;;1.00;0.87;;;21.50;99.90;;;;;;5097022;28;20446;-78
2022/09/03 11:37:21;;;;;;;0.83;0.80;;;21.10;99.90;;;;;;5096933;28;20474;-78
2022/09/03 11:39:59;;;;;;;1.20;1.10;;;20.70;99.90;;;;;;5096951;28;20446;-78
2022/09/03 11:42:33;;;;;;;1.33;1.03;;;20.30;99.90;;;;;;5096883;28;20482;-78
2022/09/03 11:45:19;;;;;;;2.13;1.00;;;20.00;99.90;;;;;;5096898;28;20432;-78
2022/09/03 11:47:46;;;;;;;2.03;0.70;;;19.80;99.90;;;;;;5096825;28;20428;-78
2022/09/03 11:50:20;;;;;;;1.10;1.00;;;19.70;99.90;;;;;;5096631;28;20448;-77
2022/09/03 11:52:47;;;;;;;0.80;0.80;;;19.50;99.90;;;;;;5096611;28;20472;-78
2022/09/03 11:55:25;;;;;;;1.33;0.70;;;19.40;99.90;;;;;;5096575;28;20443;-77
2022/09/03 11:57:53;;;;;;;1.43;1.00;;;19.40;99.90;;;;;;5096549;28;20460;-77
2022/09/03 12:00:23;;;;;;;0.40;0.40;;;19.10;99.90;;;;;;5096524;28;20456;-76
2022/09/03 12:02:54;;;;;;;0.53;0.53;;;18.50;99.90;;;;;;5096428;28;20467;-76
2022/09/03 12:05:29;;;;;;;0.60;0.60;;;18.00;99.90;;;;;;5096513;28;20432;-76
2022/09/03 12:08:18;;;;;;;0.70;0.50;;;17.50;99.90;;;;;;5097239;28;20423;-77
2022/09/03 12:10:52;;;;;;;1.53;1.43;;;17.10;99.90;;;;;;5096049;28;20771;-76
2022/09/03 12:13:33;;;;;;;0.90;0.30;;;16.90;99.90;;;;;;5096287;28;20470;-76
2022/09/03 12:16:22;;;;;;;1.70;0.70;;;16.50;99.90;;;;;;5096188;28;20431;-77
2022/09/03 12:18:51;;;;;;;0.40;0.33;;;16.50;99.90;;;;;;5086629;28;20448;-77
2022/09/03 12:21:19;;;;;;;0.30;0.30;;;16.40;99.90;;;;;;5096174;28;20440;-77
2022/09/03 12:23:48;;;;;;;0.40;0.33;;;16.30;99.90;;;;;;5095739;28;20464;-78
2022/09/03 12:26:16;;;;;;;0.40;0.40;;;16.10;99.90;;;;;;5095725;28;20820;-79
2022/09/03 12:28:47;;;;;;;0.40;0.40;;;16.10;99.90;;;;;;5096985;28;20808;-79
2022/09/03 12:31:21;;;;;;;1.37;1.27;;;16.20;99.90;;;;;;5094647;28;20967;-79
2022/09/03 12:33:50;;;;;;;0.40;0.40;;;16.10;99.90;;;;;;5095872;28;20432;-78
2022/09/03 12:36:17;;;;;;;0.77;0.40;;;16.20;99.90;;;;;;5095822;28;20464;-75
2022/09/03 12:38:46;;;;;;;0.40;0.33;;;16.30;99.90;;;;;;5095490;28;20444;-75
2022/09/03 12:41:29;;;;;;;0.40;0.30;;;16.30;99.90;;;;;;5095745;28;20446;-75
2022/09/03 12:44:00;;;;;;;0.50;0.33;;;16.30;99.90;;;;;;5093999;28;20470;-76
2022/09/03 12:46:28;;;;;;;0.30;0.30;;;16.30;99.90;;;;;;5095699;28;20431;-76
2022/09/03 12:48:58;;;;;;;0.70;0.30;;;16.20;99.90;;;;;;5095284;28;20817;-76
2022/09/03 12:51:25;;;;;;;0.30;0.30;;;16.20;99.90;;;;;;5095525;28;20520;-77
2022/09/03 12:53:53;;;;;;;0.80;0.30;;;16.20;99.90;;;;;;5095494;28;20454;-77
2022/09/03 12:56:21;;;;;;;0.70;0.30;;;16.20;99.90;;;;;;5095381;28;20931;-76
2022/09/03 12:58:55;;;;;;;0.40;0.30;;;16.30;99.90;;;;;;5095422;28;20440;-76
2022/09/03 13:01:27;;;;;;;0.40;0.30;;;16.30;99.90;;;;;;5095434;28;20438;-76
2022/09/03 13:03:57;;;;;;;0.40;0.30;;;16.40;99.90;;;;;;5095343;28;20431;-77
2022/09/03 13:06:28;;;;;;;0.40;0.30;;;16.50;99.90;;;;;;5096073;28;20776;-77
2022/09/03 13:08:58;;;;;;;0.50;0.40;;;16.60;99.90;;;;;;5095232;28;20432;-77
2022/09/03 13:11:27;;;;;;;0.50;0.40;;;16.70;99.90;;;;;;5095108;28;20428;-78
2022/09/03 13:14:00;;;;;;;0.70;0.53;;;16.70;99.90;;;;;;5094766;28;20974;-78